Pagina principale
METAR-TAF:

METAR-TAF

Aeroporti :

Aeroporto di Genova-Sestri

Genova, Italia

latitudine: 44-25N, longitudine: 008-51E, altezza: 2 m

Osservazione

Il bollettino è stato emesso 31 minuti fa, alle 09:20 UTC
Vento 13 kt da sud-est
Temperature 13°C
Umidità 77%
Pressione 1008 hPa
Visibilità 10 km o più
Nubi sparse ad un'altezza di 1500 ft

METAR: LIMJ 280920Z 13013KT 9999 SCT015 13/09 Q1008

Ora: 10:51 (09:51 UTC)

Previsione

Il bollettino è stato emesso 4 ore e 51 minuti fa, alle 05:00 UTC
Previsione valida dal 28 alle 06 UTC al 29 alle 06 UTC
Vento 16 kt da sud/sud-est
Visibilità 10 km o più
Nuvoloso ad un'altezza di 2000 ft
Nuvoloso ad un'altezza di 5000 ft

TAF: LIMJ 280500Z 2806/2906 15016KT 9999 BKN020 BKN050

Osservazioni e previsioni meteorologiche di più di 4000 aeroporti (messaggi METAR e TAF).

Le stazioni disponibili sono rappresentate dai dischi gialli e rossi sulla carta.

Puntare il mouse per vedere il nome della stazione.

Clicca sopra per visualizzare le osservazioni e previsioni meteorologiche.

Per cambiare la mappa : fare clic sui pulsanti verdi con una croce nera per ingrandire, il pulsante verde con un trattino per diminuire, o sulla freccia verde per le mappe adiacenti.


METAR-TAF: